sensor_id;sensor_type;location;lat;lon;timestamp;temperature;humidity
49236;DHT22;35067;48.134;8.378;2023-03-01T00:01:10;-4.50;99.90
49236;DHT22;35067;48.134;8.378;2023-03-01T00:02:17;-4.50;99.90
49236;DHT22;35067;48.134;8.378;2023-03-01T00:03:23;-4.50;99.90
49236;DHT22;35067;48.134;8.378;2023-03-01T00:04:29;-4.50;99.90
49236;DHT22;35067;48.134;8.378;2023-03-01T00:05:35;-4.60;99.90
49236;DHT22;35067;48.134;8.378;2023-03-01T00:06:42;-4.50;99.90
49236;DHT22;35067;48.134;8.378;2023-03-01T00:07:53;-4.50;99.90
49236;DHT22;35067;48.134;8.378;2023-03-01T00:08:59;-4.60;99.90
49236;DHT22;35067;48.134;8.378;2023-03-01T00:10:04;-4.60;99.90
49236;DHT22;35067;48.134;8.378;2023-03-01T00:11:19;-4.60;99.90
49236;DHT22;35067;48.134;8.378;2023-03-01T00:12:29;-4.60;99.90
49236;DHT22;35067;48.134;8.378;2023-03-01T00:13:35;-4.70;99.90
49236;DHT22;35067;48.134;8.378;2023-03-01T00:14:41;-4.70;99.90
49236;DHT22;35067;48.134;8.378;2023-03-01T00:15:47;-4.70;99.90
49236;DHT22;35067;48.134;8.378;2023-03-01T00:16:52;-4.70;99.90
49236;DHT22;35067;48.134;8.378;2023-03-01T00:17:58;-4.80;99.90
49236;DHT22;35067;48.134;8.378;2023-03-01T00:19:05;-4.80;99.90
49236;DHT22;35067;48.134;8.378;2023-03-01T00:20:10;-4.80;99.90
49236;DHT22;35067;48.134;8.378;2023-03-01T00:21:17;-4.70;99.90
49236;DHT22;35067;48.134;8.378;2023-03-01T00:22:21;-4.80;99.90
49236;DHT22;35067;48.134;8.378;2023-03-01T00:23:27;-4.80;99.90
49236;DHT22;35067;48.134;8.378;2023-03-01T00:24:32;-4.80;99.90
49236;DHT22;35067;48.134;8.378;2023-03-01T00:25:41;-4.80;99.90
49236;DHT22;35067;48.134;8.378;2023-03-01T00:26:46;-4.80;99.90
49236;DHT22;35067;48.134;8.378;2023-03-01T00:27:52;-4.80;99.90
49236;DHT22;35067;48.134;8.378;2023-03-01T00:28:58;-4.80;99.90
49236;DHT22;35067;48.134;8.378;2023-03-01T00:30:03;-4.80;99.90
49236;DHT22;35067;48.134;8.378;2023-03-01T00:31:06;-4.80;99.90
49236;DHT22;35067;48.134;8.378;2023-03-01T00:32:09;-4.80;99.90
49236;DHT22;35067;48.134;8.378;2023-03-01T00:33:15;-4.90;99.90
49236;DHT22;35067;48.134;8.378;2023-03-01T00:34:20;-4.90;99.90
49236;DHT22;35067;48.134;8.378;2023-03-01T00:35:25;-4.80;99.90
49236;DHT22;35067;48.134;8.378;2023-03-01T00:36:33;-4.90;99.90
49236;DHT22;35067;48.134;8.378;2023-03-01T00:37:38;-4.90;99.90
49236;DHT22;35067;48.134;8.378;2023-03-01T00:38:44;-4.90;99.90
49236;DHT22;35067;48.134;8.378;2023-03-01T00:39:49;-4.90;99.90
49236;DHT22;35067;48.134;8.378;2023-03-01T00:40:55;-4.90;99.90
49236;DHT22;35067;48.134;8.378;2023-03-01T00:42:00;-4.90;99.90
49236;DHT22;35067;48.134;8.378;2023-03-01T00:43:04;-4.90;99.90
49236;DHT22;35067;48.134;8.378;2023-03-01T00:44:10;-4.90;99.90
49236;DHT22;35067;48.134;8.378;2023-03-01T00:45:15;-4.90;99.90
49236;DHT22;35067;48.134;8.378;2023-03-01T00:46:23;-4.90;99.90
49236;DHT22;35067;48.134;8.378;2023-03-01T00:47:28;-4.90;99.90
49236;DHT22;35067;48.134;8.378;2023-03-01T00:48:34;-5.00;99.90
49236;DHT22;35067;48.134;8.378;2023-03-01T00:49:39;-4.90;99.90
49236;DHT22;35067;48.134;8.378;2023-03-01T00:50:44;-4.90;99.90
49236;DHT22;35067;48.134;8.378;2023-03-01T00:51:50;-5.00;99.90
49236;DHT22;35067;48.134;8.378;2023-03-01T00:52:56;-5.00;99.90
49236;DHT22;35067;48.134;8.378;2023-03-01T00:54:02;-4.90;99.90
49236;DHT22;35067;48.134;8.378;2023-03-01T00:55:05;-4.90;99.90
49236;DHT22;35067;48.134;8.378;2023-03-01T00:56:11;-4.90;99.90
49236;DHT22;35067;48.134;8.378;2023-03-01T00:57:15;-4.90;99.90
49236;DHT22;35067;48.134;8.378;2023-03-01T00:58:20;-4.80;99.90
49236;DHT22;35067;48.134;8.378;2023-03-01T00:59:26;-4.90;99.90
49236;DHT22;35067;48.134;8.378;2023-03-01T01:00:31;-4.90;99.90
49236;DHT22;35067;48.134;8.378;2023-03-01T01:01:37;-4.90;99.90
49236;DHT22;35067;48.134;8.378;2023-03-01T01:02:42;-4.90;99.90
49236;DHT22;35067;48.134;8.378;2023-03-01T01:03:54;-4.90;99.90
49236;DHT22;35067;48.134;8.378;2023-03-01T01:05:04;-4.90;99.90
49236;DHT22;35067;48.134;8.378;2023-03-01T01:06:15;-5.00;99.90
49236;DHT22;35067;48.134;8.378;2023-03-01T01:07:28;-4.90;99.90
49236;DHT22;35067;48.134;8.378;2023-03-01T01:08:34;-4.90;99.90
49236;DHT22;35067;48.134;8.378;2023-03-01T01:09:40;-4.90;99.90
49236;DHT22;35067;48.134;8.378;2023-03-01T01:10:47;-4.90;99.90
49236;DHT22;35067;48.134;8.378;2023-03-01T01:11:52;-4.90;99.90
49236;DHT22;35067;48.134;8.378;2023-03-01T01:12:58;-4.90;99.90
49236;DHT22;35067;48.134;8.378;2023-03-01T01:14:04;-4.90;99.90
49236;DHT22;35067;48.134;8.378;2023-03-01T01:15:09;-4.90;99.90
49236;DHT22;35067;48.134;8.378;2023-03-01T01:16:19;-4.80;99.90
49236;DHT22;35067;48.134;8.378;2023-03-01T01:17:26;-4.80;99.90
49236;DHT22;35067;48.134;8.378;2023-03-01T01:18:32;-4.70;99.90
49236;DHT22;35067;48.134;8.378;2023-03-01T01:19:38;-4.80;99.90
49236;DHT22;35067;48.134;8.378;2023-03-01T01:20:44;-4.60;99.90
49236;DHT22;35067;48.134;8.378;2023-03-01T01:21:50;-4.60;99.90
49236;DHT22;35067;48.134;8.378;2023-03-01T01:22:55;-4.50;99.90
49236;DHT22;35067;48.134;8.378;2023-03-01T01:24:03;-4.60;99.90
49236;DHT22;35067;48.134;8.378;2023-03-01T01:25:04;-4.50;99.90
49236;DHT22;35067;48.134;8.378;2023-03-01T01:26:18;-4.50;99.90
49236;DHT22;35067;48.134;8.378;2023-03-01T01:27:26;-4.50;99.90
49236;DHT22;35067;48.134;8.378;2023-03-01T01:28:31;-4.40;99.90
49236;DHT22;35067;48.134;8.378;2023-03-01T01:29:37;-4.30;99.90
49236;DHT22;35067;48.134;8.378;2023-03-01T01:30:43;-4.20;99.90
49236;DHT22;35067;48.134;8.378;2023-03-01T01:31:48;-4.20;99.90
49236;DHT22;35067;48.134;8.378;2023-03-01T01:32:54;-4.20;99.90
49236;DHT22;35067;48.134;8.378;2023-03-01T01:34:01;-4.20;99.90
49236;DHT22;35067;48.134;8.378;2023-03-01T01:35:05;-4.20;99.90
49236;DHT22;35067;48.134;8.378;2023-03-01T01:36:09;-4.20;99.90
49236;DHT22;35067;48.134;8.378;2023-03-01T01:37:15;-4.20;99.90
49236;DHT22;35067;48.134;8.378;2023-03-01T01:38:21;-4.10;99.90
49236;DHT22;35067;48.134;8.378;2023-03-01T01:39:27;-4.10;99.90
49236;DHT22;35067;48.134;8.378;2023-03-01T01:40:32;-4.20;99.90
49236;DHT22;35067;48.134;8.378;2023-03-01T01:41:40;-4.20;99.90
49236;DHT22;35067;48.134;8.378;2023-03-01T01:42:47;-4.10;99.90
49236;DHT22;35067;48.134;8.378;2023-03-01T01:44:21;-4.10;99.90
49236;DHT22;35067;48.134;8.378;2023-03-01T01:45:34;-4.10;99.90
49236;DHT22;35067;48.134;8.378;2023-03-01T01:47:34;-3.90;99.90
49236;DHT22;35067;48.134;8.378;2023-03-01T01:48:20;-3.90;99.90
49236;DHT22;35067;48.134;8.378;2023-03-01T01:49:31;-3.90;99.90
49236;DHT22;35067;48.134;8.378;2023-03-01T01:50:44;-3.80;99.90
49236;DHT22;35067;48.134;8.378;2023-03-01T01:52:35;-3.80;99.90
49236;DHT22;35067;48.134;8.378;2023-03-01T01:53:35;-3.80;99.90
49236;DHT22;35067;48.134;8.378;2023-03-01T01:54:56;-3.80;99.90
49236;DHT22;35067;48.134;8.378;2023-03-01T01:56:06;-3.80;99.90
49236;DHT22;35067;48.134;8.378;2023-03-01T01:57:23;-3.80;99.90
49236;DHT22;35067;48.134;8.378;2023-03-01T01:58:31;-3.90;99.90
49236;DHT22;35067;48.134;8.378;2023-03-01T01:59:38;-3.80;99.90
49236;DHT22;35067;48.134;8.378;2023-03-01T02:00:44;-3.90;99.90
49236;DHT22;35067;48.134;8.378;2023-03-01T02:01:51;-3.80;99.90
49236;DHT22;35067;48.134;8.378;2023-03-01T02:03:02;-3.70;99.90
49236;DHT22;35067;48.134;8.378;2023-03-01T02:04:09;-3.70;99.90
49236;DHT22;35067;48.134;8.378;2023-03-01T02:06:53;-3.70;99.90
49236;DHT22;35067;48.134;8.378;2023-03-01T02:08:04;-3.60;99.90
49236;DHT22;35067;48.134;8.378;2023-03-01T02:09:13;-3.60;99.90
49236;DHT22;35067;48.134;8.378;2023-03-01T02:10:21;-3.60;99.90
49236;DHT22;35067;48.134;8.378;2023-03-01T02:11:30;-3.70;99.90
49236;DHT22;35067;48.134;8.378;2023-03-01T02:12:37;-3.60;99.90
49236;DHT22;35067;48.134;8.378;2023-03-01T02:13:44;-3.60;99.90
49236;DHT22;35067;48.134;8.378;2023-03-01T02:14:50;-3.60;99.90
49236;DHT22;35067;48.134;8.378;2023-03-01T02:15:56;-3.50;99.90
49236;DHT22;35067;48.134;8.378;2023-03-01T02:17:01;-3.50;99.90
49236;DHT22;35067;48.134;8.378;2023-03-01T02:18:05;-3.40;99.90
49236;DHT22;35067;48.134;8.378;2023-03-01T02:19:17;-3.40;99.90
49236;DHT22;35067;48.134;8.378;2023-03-01T02:22:04;-3.30;99.90
49236;DHT22;35067;48.134;8.378;2023-03-01T02:23:16;-3.20;99.90
49236;DHT22;35067;48.134;8.378;2023-03-01T02:24:42;-3.20;99.90
49236;DHT22;35067;48.134;8.378;2023-03-01T02:29:19;-3.20;99.90
49236;DHT22;35067;48.134;8.378;2023-03-01T02:30:25;-3.10;99.90
49236;DHT22;35067;48.134;8.378;2023-03-01T02:31:30;-3.10;99.90
49236;DHT22;35067;48.134;8.378;2023-03-01T02:32:50;-3.00;99.90
49236;DHT22;35067;48.134;8.378;2023-03-01T02:33:58;-3.10;99.90
49236;DHT22;35067;48.134;8.378;2023-03-01T02:35:04;-3.10;99.90
49236;DHT22;35067;48.134;8.378;2023-03-01T02:36:18;-3.00;99.90
49236;DHT22;35067;48.134;8.378;2023-03-01T02:37:26;-3.00;99.90
49236;DHT22;35067;48.134;8.378;2023-03-01T02:38:32;-2.90;99.90
49236;DHT22;35067;48.134;8.378;2023-03-01T02:39:46;-2.90;99.90
49236;DHT22;35067;48.134;8.378;2023-03-01T02:40:50;-2.90;99.90
49236;DHT22;35067;48.134;8.378;2023-03-01T02:41:56;-2.80;99.90
49236;DHT22;35067;48.134;8.378;2023-03-01T02:43:01;-2.80;99.90
49236;DHT22;35067;48.134;8.378;2023-03-01T02:44:08;-2.70;99.90
49236;DHT22;35067;48.134;8.378;2023-03-01T02:45:14;-2.70;99.90
49236;DHT22;35067;48.134;8.378;2023-03-01T02:46:19;-2.70;99.90
49236;DHT22;35067;48.134;8.378;2023-03-01T02:47:22;-2.80;99.90
49236;DHT22;35067;48.134;8.378;2023-03-01T02:48:37;-2.70;99.90
49236;DHT22;35067;48.134;8.378;2023-03-01T02:49:45;-2.70;99.90
49236;DHT22;35067;48.134;8.378;2023-03-01T02:55:31;-2.40;99.90
49236;DHT22;35067;48.134;8.378;2023-03-01T02:56:36;-2.40;99.90
49236;DHT22;35067;48.134;8.378;2023-03-01T02:57:44;-2.40;99.90
49236;DHT22;35067;48.134;8.378;2023-03-01T02:58:48;-2.30;99.90
49236;DHT22;35067;48.134;8.378;2023-03-01T02:59:59;-2.30;99.90
49236;DHT22;35067;48.134;8.378;2023-03-01T03:01:07;-2.30;99.90
49236;DHT22;35067;48.134;8.378;2023-03-01T03:02:24;-2.20;99.90
49236;DHT22;35067;48.134;8.378;2023-03-01T03:03:41;-2.20;99.90
49236;DHT22;35067;48.134;8.378;2023-03-01T03:04:47;-2.20;99.90
49236;DHT22;35067;48.134;8.378;2023-03-01T03:05:53;-2.30;99.90
49236;DHT22;35067;48.134;8.378;2023-03-01T03:06:59;-2.30;99.90
49236;DHT22;35067;48.134;8.378;2023-03-01T03:08:04;-2.30;99.90
49236;DHT22;35067;48.134;8.378;2023-03-01T03:09:09;-2.20;99.90
49236;DHT22;35067;48.134;8.378;2023-03-01T03:10:21;-2.20;99.90
49236;DHT22;35067;48.134;8.378;2023-03-01T03:11:29;-2.20;99.90
49236;DHT22;35067;48.134;8.378;2023-03-01T03:12:35;-2.20;99.90
49236;DHT22;35067;48.134;8.378;2023-03-01T03:13:41;-2.10;99.90
49236;DHT22;35067;48.134;8.378;2023-03-01T03:14:53;-2.20;99.90
49236;DHT22;35067;48.134;8.378;2023-03-01T03:15:58;-2.20;99.90
49236;DHT22;35067;48.134;8.378;2023-03-01T03:17:04;-2.10;99.90
49236;DHT22;35067;48.134;8.378;2023-03-01T03:18:13;-2.00;99.90
49236;DHT22;35067;48.134;8.378;2023-03-01T03:19:20;-1.90;99.90
49236;DHT22;35067;48.134;8.378;2023-03-01T03:20:27;-1.80;99.90
49236;DHT22;35067;48.134;8.378;2023-03-01T03:21:34;-1.80;99.90
49236;DHT22;35067;48.134;8.378;2023-03-01T03:22:40;-1.70;99.90
49236;DHT22;35067;48.134;8.378;2023-03-01T03:23:46;-1.80;99.90
49236;DHT22;35067;48.134;8.378;2023-03-01T03:24:52;-1.80;99.90
49236;DHT22;35067;48.134;8.378;2023-03-01T03:25:57;-1.80;99.90
49236;DHT22;35067;48.134;8.378;2023-03-01T03:27:06;-1.90;99.90
49236;DHT22;35067;48.134;8.378;2023-03-01T03:28:09;-1.90;99.90
49236;DHT22;35067;48.134;8.378;2023-03-01T03:29:15;-1.90;99.90
49236;DHT22;35067;48.134;8.378;2023-03-01T03:30:21;-2.00;99.90
49236;DHT22;35067;48.134;8.378;2023-03-01T03:31:27;-1.90;99.90
49236;DHT22;35067;48.134;8.378;2023-03-01T03:32:33;-1.80;99.90
49236;DHT22;35067;48.134;8.378;2023-03-01T03:33:38;-1.80;99.90
49236;DHT22;35067;48.134;8.378;2023-03-01T03:34:44;-1.70;99.90
49236;DHT22;35067;48.134;8.378;2023-03-01T03:35:50;-1.80;99.90
49236;DHT22;35067;48.134;8.378;2023-03-01T03:36:56;-1.90;99.90
49236;DHT22;35067;48.134;8.378;2023-03-01T03:38:06;-1.90;99.90
49236;DHT22;35067;48.134;8.378;2023-03-01T03:39:20;-1.80;99.90
49236;DHT22;35067;48.134;8.378;2023-03-01T03:40:27;-1.80;99.90
49236;DHT22;35067;48.134;8.378;2023-03-01T03:41:37;-1.90;99.90
49236;DHT22;35067;48.134;8.378;2023-03-01T03:42:43;-1.90;99.90
49236;DHT22;35067;48.134;8.378;2023-03-01T03:43:48;-1.90;99.90
49236;DHT22;35067;48.134;8.378;2023-03-01T03:44:54;-1.80;99.90
49236;DHT22;35067;48.134;8.378;2023-03-01T03:46:00;-1.80;99.90
49236;DHT22;35067;48.134;8.378;2023-03-01T03:47:09;-1.80;99.90
49236;DHT22;35067;48.134;8.378;2023-03-01T03:48:15;-1.80;99.90
49236;DHT22;35067;48.134;8.378;2023-03-01T03:49:22;-1.80;99.90
49236;DHT22;35067;48.134;8.378;2023-03-01T03:50:28;-1.80;99.90
49236;DHT22;35067;48.134;8.378;2023-03-01T03:51:34;-1.80;99.90
49236;DHT22;35067;48.134;8.378;2023-03-01T03:52:40;-1.80;99.90
49236;DHT22;35067;48.134;8.378;2023-03-01T03:53:46;-1.70;99.90
49236;DHT22;35067;48.134;8.378;2023-03-01T03:54:51;-1.70;99.90
49236;DHT22;35067;48.134;8.378;2023-03-01T03:55:57;-1.70;99.90
49236;DHT22;35067;48.134;8.378;2023-03-01T03:57:03;-1.70;99.90
49236;DHT22;35067;48.134;8.378;2023-03-01T03:58:06;-1.90;99.90
49236;DHT22;35067;48.134;8.378;2023-03-01T03:59:09;-1.90;99.90
49236;DHT22;35067;48.134;8.378;2023-03-01T04:00:18;-1.90;99.90
49236;DHT22;35067;48.134;8.378;2023-03-01T04:01:25;-1.90;99.90
49236;DHT22;35067;48.134;8.378;2023-03-01T04:02:31;-1.90;99.90
49236;DHT22;35067;48.134;8.378;2023-03-01T04:03:37;-1.90;99.90
49236;DHT22;35067;48.134;8.378;2023-03-01T04:04:42;-2.00;99.90
49236;DHT22;35067;48.134;8.378;2023-03-01T04:05:49;-2.00;99.90
49236;DHT22;35067;48.134;8.378;2023-03-01T04:06:55;-2.00;99.90
49236;DHT22;35067;48.134;8.378;2023-03-01T04:08:02;-2.00;99.90
49236;DHT22;35067;48.134;8.378;2023-03-01T04:09:03;-2.10;99.90
49236;DHT22;35067;48.134;8.378;2023-03-01T04:10:06;-2.00;99.90
49236;DHT22;35067;48.134;8.378;2023-03-01T04:11:09;-1.90;99.90
49236;DHT22;35067;48.134;8.378;2023-03-01T04:12:36;-2.00;99.90
49236;DHT22;35067;48.134;8.378;2023-03-01T04:13:42;-1.90;99.90
49236;DHT22;35067;48.134;8.378;2023-03-01T04:14:47;-1.90;99.90
49236;DHT22;35067;48.134;8.378;2023-03-01T04:15:54;-2.00;99.90
49236;DHT22;35067;48.134;8.378;2023-03-01T04:16:59;-2.00;99.90
49236;DHT22;35067;48.134;8.378;2023-03-01T04:18:04;-1.90;99.90
49236;DHT22;35067;48.134;8.378;2023-03-01T04:19:08;-1.80;99.90
49236;DHT22;35067;48.134;8.378;2023-03-01T04:20:17;-1.90;99.90
49236;DHT22;35067;48.134;8.378;2023-03-01T04:21:30;-1.80;99.90
49236;DHT22;35067;48.134;8.378;2023-03-01T04:22:35;-1.80;99.90
49236;DHT22;35067;48.134;8.378;2023-03-01T04:23:41;-1.70;99.90
49236;DHT22;35067;48.134;8.378;2023-03-01T04:24:46;-1.80;99.90
49236;DHT22;35067;48.134;8.378;2023-03-01T04:27:00;-1.70;99.90
49236;DHT22;35067;48.134;8.378;2023-03-01T04:28:04;-1.60;99.90
49236;DHT22;35067;48.134;8.378;2023-03-01T04:29:09;-1.50;99.90
49236;DHT22;35067;48.134;8.378;2023-03-01T04:30:15;-1.50;99.90
49236;DHT22;35067;48.134;8.378;2023-03-01T04:31:20;-1.60;99.90
49236;DHT22;35067;48.134;8.378;2023-03-01T04:32:26;-1.70;99.90
49236;DHT22;35067;48.134;8.378;2023-03-01T04:33:31;-1.70;99.90
49236;DHT22;35067;48.134;8.378;2023-03-01T04:34:37;-1.70;99.90
49236;DHT22;35067;48.134;8.378;2023-03-01T04:35:42;-1.80;99.90
49236;DHT22;35067;48.134;8.378;2023-03-01T04:36:48;-1.70;99.90
49236;DHT22;35067;48.134;8.378;2023-03-01T04:37:53;-1.70;99.90
49236;DHT22;35067;48.134;8.378;2023-03-01T04:38:59;-1.60;99.90
49236;DHT22;35067;48.134;8.378;2023-03-01T04:40:05;-1.70;99.90
49236;DHT22;35067;48.134;8.378;2023-03-01T04:41:21;-1.60;99.90
49236;DHT22;35067;48.134;8.378;2023-03-01T04:42:24;-1.60;99.90
49236;DHT22;35067;48.134;8.378;2023-03-01T04:43:29;-1.50;99.90
49236;DHT22;35067;48.134;8.378;2023-03-01T04:44:35;-1.60;99.90
49236;DHT22;35067;48.134;8.378;2023-03-01T04:45:40;-1.70;99.90
49236;DHT22;35067;48.134;8.378;2023-03-01T04:46:48;-1.80;99.90
49236;DHT22;35067;48.134;8.378;2023-03-01T04:47:54;-1.90;99.90
49236;DHT22;35067;48.134;8.378;2023-03-01T04:48:59;-1.80;99.90
49236;DHT22;35067;48.134;8.378;2023-03-01T04:50:04;-1.80;99.90
49236;DHT22;35067;48.134;8.378;2023-03-01T04:51:09;-1.80;99.90
49236;DHT22;35067;48.134;8.378;2023-03-01T04:52:15;-1.70;99.90
49236;DHT22;35067;48.134;8.378;2023-03-01T04:53:20;-1.80;99.90
49236;DHT22;35067;48.134;8.378;2023-03-01T04:54:25;-1.70;99.90
49236;DHT22;35067;48.134;8.378;2023-03-01T04:55:31;-1.80;99.90
49236;DHT22;35067;48.134;8.378;2023-03-01T04:56:36;-1.80;99.90
49236;DHT22;35067;48.134;8.378;2023-03-01T04:57:42;-1.80;99.90
49236;DHT22;35067;48.134;8.378;2023-03-01T04:58:48;-1.70;99.90
49236;DHT22;35067;48.134;8.378;2023-03-01T04:59:53;-1.80;99.90
49236;DHT22;35067;48.134;8.378;2023-03-01T05:00:58;-1.70;99.90
49236;DHT22;35067;48.134;8.378;2023-03-01T05:02:03;-1.70;99.90
49236;DHT22;35067;48.134;8.378;2023-03-01T05:03:08;-1.60;99.90
49236;DHT22;35067;48.134;8.378;2023-03-01T05:04:14;-1.60;99.90
49236;DHT22;35067;48.134;8.378;2023-03-01T05:05:22;-1.70;99.90
49236;DHT22;35067;48.134;8.378;2023-03-01T05:06:31;-1.70;99.90
49236;DHT22;35067;48.134;8.378;2023-03-01T05:07:36;-1.70;99.90
49236;DHT22;35067;48.134;8.378;2023-03-01T05:08:42;-1.70;99.90
49236;DHT22;35067;48.134;8.378;2023-03-01T05:09:47;-1.70;99.90
49236;DHT22;35067;48.134;8.378;2023-03-01T05:10:53;-1.70;99.90
49236;DHT22;35067;48.134;8.378;2023-03-01T05:11:58;-1.80;99.90
49236;DHT22;35067;48.134;8.378;2023-03-01T05:13:03;-1.80;99.90
49236;DHT22;35067;48.134;8.378;2023-03-01T05:14:09;-1.80;99.90
49236;DHT22;35067;48.134;8.378;2023-03-01T05:15:14;-1.70;99.90
49236;DHT22;35067;48.134;8.378;2023-03-01T05:16:20;-1.70;99.90
49236;DHT22;35067;48.134;8.378;2023-03-01T05:17:22;-1.70;99.90
49236;DHT22;35067;48.134;8.378;2023-03-01T05:18:29;-1.70;99.90
49236;DHT22;35067;48.134;8.378;2023-03-01T05:19:34;-1.60;99.90
49236;DHT22;35067;48.134;8.378;2023-03-01T05:20:39;-1.60;99.90
49236;DHT22;35067;48.134;8.378;2023-03-01T05:21:44;-1.50;99.90
49236;DHT22;35067;48.134;8.378;2023-03-01T05:23:08;-1.60;99.90
49236;DHT22;35067;48.134;8.378;2023-03-01T05:24:14;-1.50;99.90
49236;DHT22;35067;48.134;8.378;2023-03-01T05:25:17;-1.50;99.90
49236;DHT22;35067;48.134;8.378;2023-03-01T05:26:22;-1.40;99.90
49236;DHT22;35067;48.134;8.378;2023-03-01T05:27:33;-1.40;99.90
49236;DHT22;35067;48.134;8.378;2023-03-01T05:28:38;-1.50;99.90
49236;DHT22;35067;48.134;8.378;2023-03-01T05:29:43;-1.50;99.90
49236;DHT22;35067;48.134;8.378;2023-03-01T05:30:49;-1.40;99.90
49236;DHT22;35067;48.134;8.378;2023-03-01T05:32:00;-1.40;99.90
49236;DHT22;35067;48.134;8.378;2023-03-01T05:33:03;-1.60;99.90
49236;DHT22;35067;48.134;8.378;2023-03-01T05:34:04;-1.60;99.90
49236;DHT22;35067;48.134;8.378;2023-03-01T05:35:11;-1.50;99.90
49236;DHT22;35067;48.134;8.378;2023-03-01T05:36:18;-1.50;99.90
49236;DHT22;35067;48.134;8.378;2023-03-01T05:37:23;-1.50;99.90
49236;DHT22;35067;48.134;8.378;2023-03-01T05:38:29;-1.40;99.90
49236;DHT22;35067;48.134;8.378;2023-03-01T05:39:34;-1.30;99.90
49236;DHT22;35067;48.134;8.378;2023-03-01T05:40:44;-1.30;99.90
49236;DHT22;35067;48.134;8.378;2023-03-01T05:41:46;-1.30;99.90
49236;DHT22;35067;48.134;8.378;2023-03-01T05:42:56;-1.30;99.90
49236;DHT22;35067;48.134;8.378;2023-03-01T05:44:00;-1.30;99.90
49236;DHT22;35067;48.134;8.378;2023-03-01T05:45:04;-1.30;99.90
49236;DHT22;35067;48.134;8.378;2023-03-01T05:46:14;-1.40;99.90
49236;DHT22;35067;48.134;8.378;2023-03-01T05:47:17;-1.30;99.90
49236;DHT22;35067;48.134;8.378;2023-03-01T05:48:23;-1.30;99.90
49236;DHT22;35067;48.134;8.378;2023-03-01T05:49:28;-1.40;99.90
49236;DHT22;35067;48.134;8.378;2023-03-01T05:50:36;-1.40;99.90
49236;DHT22;35067;48.134;8.378;2023-03-01T05:51:47;-1.30;99.90
49236;DHT22;35067;48.134;8.378;2023-03-01T05:53:06;-1.30;99.90
49236;DHT22;35067;48.134;8.378;2023-03-01T05:54:18;-1.30;99.90
49236;DHT22;35067;48.134;8.378;2023-03-01T05:55:25;-1.40;99.90
49236;DHT22;35067;48.134;8.378;2023-03-01T05:56:33;-1.30;99.90
49236;DHT22;35067;48.134;8.378;2023-03-01T05:57:39;-1.30;99.90
49236;DHT22;35067;48.134;8.378;2023-03-01T05:58:45;-1.30;99.90
49236;DHT22;35067;48.134;8.378;2023-03-01T05:59:53;-1.30;99.90
49236;DHT22;35067;48.134;8.378;2023-03-01T06:00:59;-1.30;99.90
49236;DHT22;35067;48.134;8.378;2023-03-01T06:02:03;-1.40;99.90
49236;DHT22;35067;48.134;8.378;2023-03-01T06:03:10;-1.30;99.90
49236;DHT22;35067;48.134;8.378;2023-03-01T06:04:17;-1.40;99.90
49236;DHT22;35067;48.134;8.378;2023-03-01T06:05:24;-1.40;99.90
49236;DHT22;35067;48.134;8.378;2023-03-01T06:06:33;-1.40;99.90
49236;DHT22;35067;48.134;8.378;2023-03-01T06:07:40;-1.40;99.90
49236;DHT22;35067;48.134;8.378;2023-03-01T06:08:46;-1.40;99.90
49236;DHT22;35067;48.134;8.378;2023-03-01T06:09:52;-1.60;99.90
49236;DHT22;35067;48.134;8.378;2023-03-01T06:10:58;-1.60;99.90
49236;DHT22;35067;48.134;8.378;2023-03-01T06:12:03;-1.70;99.90
49236;DHT22;35067;48.134;8.378;2023-03-01T06:13:08;-1.80;99.90
49236;DHT22;35067;48.134;8.378;2023-03-01T06:14:14;-1.80;99.90
49236;DHT22;35067;48.134;8.378;2023-03-01T06:15:21;-1.70;99.90
49236;DHT22;35067;48.134;8.378;2023-03-01T06:16:27;-1.90;99.90
49236;DHT22;35067;48.134;8.378;2023-03-01T06:17:34;-1.80;99.90
49236;DHT22;35067;48.134;8.378;2023-03-01T06:18:43;-1.80;99.90
49236;DHT22;35067;48.134;8.378;2023-03-01T06:19:48;-1.90;99.90
49236;DHT22;35067;48.134;8.378;2023-03-01T06:20:55;-1.80;99.90
49236;DHT22;35067;48.134;8.378;2023-03-01T06:22:01;-1.90;99.90
49236;DHT22;35067;48.134;8.378;2023-03-01T06:23:03;-1.90;99.90
49236;DHT22;35067;48.134;8.378;2023-03-01T06:24:04;-1.80;99.90
49236;DHT22;35067;48.134;8.378;2023-03-01T06:25:11;-1.80;99.90
49236;DHT22;35067;48.134;8.378;2023-03-01T06:26:17;-1.70;99.90
49236;DHT22;35067;48.134;8.378;2023-03-01T06:27:23;-1.70;99.90
49236;DHT22;35067;48.134;8.378;2023-03-01T06:28:29;-1.80;99.90
49236;DHT22;35067;48.134;8.378;2023-03-01T06:29:35;-1.80;99.90
49236;DHT22;35067;48.134;8.378;2023-03-01T06:30:40;-1.90;99.90
49236;DHT22;35067;48.134;8.378;2023-03-01T06:31:46;-1.90;99.90
49236;DHT22;35067;48.134;8.378;2023-03-01T06:32:52;-1.90;99.90
49236;DHT22;35067;48.134;8.378;2023-03-01T06:33:58;-2.00;99.90
49236;DHT22;35067;48.134;8.378;2023-03-01T06:35:04;-2.00;99.90
49236;DHT22;35067;48.134;8.378;2023-03-01T06:36:09;-1.90;99.90
49236;DHT22;35067;48.134;8.378;2023-03-01T06:37:15;-1.70;99.90
49236;DHT22;35067;48.134;8.378;2023-03-01T06:38:21;-1.80;99.90
49236;DHT22;35067;48.134;8.378;2023-03-01T06:39:28;-1.80;99.90
49236;DHT22;35067;48.134;8.378;2023-03-01T06:40:33;-1.80;99.90
49236;DHT22;35067;48.134;8.378;2023-03-01T06:41:40;-1.80;99.90
49236;DHT22;35067;48.134;8.378;2023-03-01T06:42:49;-1.80;99.90
49236;DHT22;35067;48.134;8.378;2023-03-01T06:43:54;-1.80;99.90
49236;DHT22;35067;48.134;8.378;2023-03-01T06:44:59;-1.80;99.90
49236;DHT22;35067;48.134;8.378;2023-03-01T06:46:04;-1.80;99.90
49236;DHT22;35067;48.134;8.378;2023-03-01T06:47:08;-1.80;99.90
49236;DHT22;35067;48.134;8.378;2023-03-01T06:48:14;-1.80;99.90
49236;DHT22;35067;48.134;8.378;2023-03-01T06:49:20;-1.70;99.90
49236;DHT22;35067;48.134;8.378;2023-03-01T06:50:25;-1.60;99.90
49236;DHT22;35067;48.134;8.378;2023-03-01T06:51:30;-1.60;99.90
49236;DHT22;35067;48.134;8.378;2023-03-01T06:52:36;-1.60;99.90
49236;DHT22;35067;48.134;8.378;2023-03-01T06:53:42;-1.80;99.90
49236;DHT22;35067;48.134;8.378;2023-03-01T06:54:47;-1.80;99.90
49236;DHT22;35067;48.134;8.378;2023-03-01T06:55:57;-1.80;99.90
49236;DHT22;35067;48.134;8.378;2023-03-01T06:56:59;-1.80;99.90
49236;DHT22;35067;48.134;8.378;2023-03-01T06:58:04;-1.90;99.90
49236;DHT22;35067;48.134;8.378;2023-03-01T06:59:09;-1.90;99.90
49236;DHT22;35067;48.134;8.378;2023-03-01T07:00:15;-1.90;99.90
49236;DHT22;35067;48.134;8.378;2023-03-01T07:01:20;-1.90;99.90
49236;DHT22;35067;48.134;8.378;2023-03-01T07:02:26;-1.90;99.90
49236;DHT22;35067;48.134;8.378;2023-03-01T07:03:31;-1.90;99.90
49236;DHT22;35067;48.134;8.378;2023-03-01T07:04:37;-1.90;99.90
49236;DHT22;35067;48.134;8.378;2023-03-01T07:05:42;-1.90;99.90
49236;DHT22;35067;48.134;8.378;2023-03-01T07:06:48;-2.10;99.90
49236;DHT22;35067;48.134;8.378;2023-03-01T07:08:00;-2.20;99.90
49236;DHT22;35067;48.134;8.378;2023-03-01T07:09:04;-2.10;99.90
49236;DHT22;35067;48.134;8.378;2023-03-01T07:10:10;-2.10;99.90
49236;DHT22;35067;48.134;8.378;2023-03-01T07:11:15;-2.10;99.90
49236;DHT22;35067;48.134;8.378;2023-03-01T07:12:20;-1.90;99.90
49236;DHT22;35067;48.134;8.378;2023-03-01T07:13:26;-1.70;99.90
49236;DHT22;35067;48.134;8.378;2023-03-01T07:14:31;-1.60;99.90
49236;DHT22;35067;48.134;8.378;2023-03-01T07:15:37;-1.60;99.90